createdAt,value
2023-02-09T00:00:03.357Z,0
2023-02-09T00:05:03.381Z,0
2023-02-09T00:10:03.261Z,0
2023-02-09T00:15:03.220Z,0
2023-02-09T00:20:02.794Z,0
2023-02-09T00:25:02.529Z,0
2023-02-09T00:30:03.312Z,0
2023-02-09T00:35:03.340Z,0
2023-02-09T00:40:03.006Z,0
2023-02-09T00:45:02.696Z,0
2023-02-09T00:50:02.584Z,0
2023-02-09T00:55:03.122Z,0
2023-02-09T01:00:03.328Z,0
2023-02-09T01:05:03.137Z,0
2023-02-09T01:10:03.254Z,0
2023-02-09T01:15:03.074Z,0
2023-02-09T01:20:02.786Z,0
2023-02-09T01:25:02.580Z,0
2023-02-09T01:30:02.435Z,0
2023-02-09T01:35:03.034Z,0
2023-02-09T01:40:03.060Z,0
2023-02-09T01:45:02.934Z,0
2023-02-09T01:50:02.518Z,0
2023-02-09T01:55:03.523Z,0
2023-02-09T02:00:03.060Z,0
2023-02-09T02:05:02.845Z,0
2023-02-09T02:10:02.796Z,0
2023-02-09T02:15:02.709Z,0
2023-02-09T02:25:03.113Z,0
2023-02-09T02:30:03.234Z,0
2023-02-09T02:35:02.968Z,0
2023-02-09T02:40:02.886Z,0
2023-02-09T02:45:02.522Z,0
2023-02-09T02:50:02.581Z,0
2023-02-09T02:55:03.206Z,0
2023-02-09T03:00:03.196Z,0
2023-02-09T03:05:02.840Z,0
2023-02-09T03:15:02.589Z,0
2023-02-09T03:20:03.310Z,0
2023-02-09T03:25:03.415Z,0
2023-02-09T03:30:02.884Z,0
2023-02-09T03:35:02.563Z,0
2023-02-09T03:40:02.541Z,0
2023-02-09T03:45:02.413Z,0
2023-02-09T03:55:03.587Z,0
2023-02-09T04:05:06.084Z,0
2023-02-09T04:10:02.375Z,0
2023-02-09T04:15:02.936Z,0
2023-02-09T04:20:03.159Z,0
2023-02-09T04:25:03.218Z,0
2023-02-09T04:30:03.092Z,0
2023-02-09T04:35:02.613Z,0
2023-02-09T04:40:02.368Z,0
2023-02-09T04:45:03.111Z,0
2023-02-09T04:50:02.766Z,0
2023-02-09T04:55:03.137Z,0
2023-02-09T05:00:03.355Z,0
2023-02-09T05:05:02.625Z,0
2023-02-09T05:10:02.474Z,0
2023-02-09T05:15:02.400Z,0
2023-02-09T05:20:03.445Z,0
2023-02-09T05:25:03.154Z,0
2023-02-09T05:30:02.873Z,0
2023-02-09T05:35:02.629Z,0
2023-02-09T05:40:02.494Z,0
2023-02-09T05:45:02.507Z,0
2023-02-09T05:50:03.214Z,0
2023-02-09T05:55:03.684Z,0.23
2023-02-09T06:00:03.053Z,0.79
2023-02-09T06:05:02.632Z,2.04
2023-02-09T06:10:02.384Z,6
2023-02-09T06:15:02.643Z,5
2023-02-09T06:20:03.261Z,15
2023-02-09T06:25:02.979Z,35
2023-02-09T06:30:02.817Z,66.67
2023-02-09T06:35:02.620Z,115
2023-02-09T06:40:02.635Z,178.33
2023-02-09T06:45:02.651Z,353.33
2023-02-09T06:50:03.856Z,458.33
2023-02-09T06:55:03.840Z,575
2023-02-09T07:00:03.048Z,688.33
2023-02-09T07:05:02.744Z,808.33
2023-02-09T07:10:02.462Z,921.67
2023-02-09T07:15:03.292Z,1036.67
2023-02-09T07:20:03.134Z,1140
2023-02-09T07:25:03.160Z,1796.67
2023-02-09T07:30:03.070Z,2376.67
2023-02-09T07:35:02.720Z,2713.33
2023-02-09T07:40:02.560Z,2948.33
2023-02-09T07:45:03.569Z,3300
2023-02-09T07:50:03.230Z,3628.33
2023-02-09T07:55:03.607Z,3938.33
2023-02-09T08:00:02.629Z,4145
2023-02-09T08:05:02.603Z,4038.33
2023-02-09T08:10:03.304Z,4438.33
2023-02-09T08:15:03.358Z,4658.33
2023-02-09T08:20:03.050Z,4800
2023-02-09T08:25:02.740Z,4821.67
2023-02-09T08:30:02.492Z,4855
2023-02-09T08:35:03.133Z,5766.67
2023-02-09T08:40:02.857Z,6183.33
2023-02-09T08:45:03.337Z,6370
2023-02-09T08:50:02.728Z,5841.67
2023-02-09T08:55:03.223Z,5906.67
2023-02-09T09:00:03.309Z,7110
2023-02-09T09:05:03.512Z,7771.67
2023-02-09T09:10:02.806Z,8078.33
2023-02-09T09:15:03.034Z,8690
2023-02-09T09:35:02.654Z,9855
2023-02-09T09:40:02.404Z,10688.33
2023-02-09T09:45:02.622Z,10610
2023-02-09T09:50:03.240Z,10581.67
2023-02-09T09:55:03.747Z,9928.33
2023-02-09T10:00:02.734Z,11563.33
2023-02-09T10:10:02.382Z,11713.33
2023-02-09T10:15:03.291Z,12323.33
2023-02-09T10:20:03.062Z,11811.67
2023-02-09T10:25:02.770Z,11365
2023-02-09T10:35:02.589Z,11343.33
2023-02-09T10:40:03.294Z,12116.67
2023-02-09T10:45:03.305Z,12480
2023-02-09T10:50:03.065Z,12595
2023-02-09T10:55:03.302Z,12478.33
2023-02-09T11:00:02.662Z,12861.67
2023-02-09T11:05:02.562Z,28603.33
2023-02-09T11:10:03.139Z,13448.33
2023-02-09T11:15:02.996Z,12746.67
2023-02-09T11:20:02.750Z,11413.33
2023-02-09T11:25:02.925Z,11288.33
2023-02-09T11:30:02.817Z,11200
2023-02-09T11:35:03.276Z,11428.33
2023-02-09T11:40:03.537Z,11920
2023-02-09T11:50:02.546Z,11276.67
2023-02-09T11:55:04.054Z,11908.33
2023-02-09T12:00:03.105Z,11560
2023-02-09T12:05:02.745Z,10168.33
2023-02-09T12:10:02.680Z,10788.33
2023-02-09T12:15:02.392Z,10896.67
2023-02-09T12:20:03.506Z,10355
2023-02-09T12:25:03.149Z,10293.33
2023-02-09T12:30:03.355Z,9428.33
2023-02-09T12:35:02.674Z,8728.33
2023-02-09T12:40:02.730Z,8926.67
2023-02-09T12:45:02.488Z,7160
2023-02-09T12:50:03.279Z,9895
2023-02-09T12:55:03.378Z,10121.67
2023-02-09T13:00:02.679Z,9925
2023-02-09T13:05:02.420Z,9566.67
2023-02-09T13:10:02.351Z,9311.67
2023-02-09T13:15:03.250Z,8000
2023-02-09T13:20:03.033Z,8350
2023-02-09T13:25:03.089Z,9121.67
2023-02-09T13:30:03.030Z,8360
2023-02-09T13:35:02.666Z,7813.33
2023-02-09T13:40:02.562Z,7320
2023-02-09T13:45:03.306Z,7365
2023-02-09T13:50:03.369Z,7256.67
2023-02-09T13:55:03.625Z,7266.67
2023-02-09T14:05:02.818Z,7028.33
2023-02-09T14:10:02.693Z,6356.67
2023-02-09T14:15:02.791Z,5555
2023-02-09T14:20:02.770Z,4988.33
2023-02-09T14:25:02.788Z,4461.67
2023-02-09T14:30:03.166Z,3651.67
2023-02-09T14:35:03.033Z,3515
2023-02-09T14:40:02.625Z,3398.33
2023-02-09T14:45:03.430Z,3121.67
2023-02-09T14:50:03.004Z,3008.33
2023-02-09T14:55:03.134Z,2828.33
2023-02-09T15:00:02.444Z,2785
2023-02-09T15:05:03.256Z,2428.33
2023-02-09T15:15:03.052Z,1865
2023-02-09T15:20:03.386Z,1666.67
2023-02-09T15:25:03.167Z,1421.67
2023-02-09T15:30:05.122Z,1196.67
2023-02-09T15:35:02.680Z,1010
2023-02-09T15:40:02.508Z,836.67
2023-02-09T15:45:03.269Z,680
2023-02-09T15:50:03.746Z,545
2023-02-09T15:55:03.843Z,425
2023-02-09T16:00:03.012Z,313.33
2023-02-09T16:05:02.531Z,216.67
2023-02-09T16:10:03.459Z,146.67
2023-02-09T16:15:02.568Z,95
2023-02-09T16:20:03.270Z,60
2023-02-09T16:25:03.230Z,31.67
2023-02-09T16:30:02.921Z,15
2023-02-09T16:35:17.297Z,10.87
2023-02-09T16:40:03.234Z,4.53
2023-02-09T16:45:02.973Z,1.81
2023-02-09T16:50:02.693Z,0.68
2023-02-09T17:00:03.487Z,0
2023-02-09T17:05:03.030Z,0
2023-02-09T17:10:02.862Z,0
2023-02-09T17:15:02.658Z,0
2023-02-09T17:25:02.803Z,0
2023-02-09T17:30:02.379Z,0
2023-02-09T17:40:02.877Z,0
2023-02-09T17:45:02.972Z,0
2023-02-09T17:50:02.775Z,0
2023-02-09T17:55:03.126Z,0
2023-02-09T18:05:02.376Z,0
2023-02-09T18:10:03.208Z,0
2023-02-09T18:15:03.123Z,0
2023-02-09T18:20:02.944Z,0
2023-02-09T18:25:02.733Z,0
2023-02-09T18:30:02.532Z,0
2023-02-09T18:35:03.265Z,0
2023-02-09T18:40:03.187Z,0
2023-02-09T18:45:03.235Z,0
2023-02-09T18:50:02.856Z,0
2023-02-09T18:55:03.124Z,0
2023-02-09T19:00:02.504Z,0
2023-02-09T19:05:02.438Z,0
2023-02-09T19:10:03.138Z,0
2023-02-09T19:15:03.015Z,0
2023-02-09T19:20:02.718Z,0
2023-02-09T19:25:02.509Z,0
2023-02-09T19:30:03.304Z,0
2023-02-09T19:35:03.225Z,0
2023-02-09T19:40:03.178Z,0
2023-02-09T19:45:03.019Z,0
2023-02-09T19:50:02.698Z,0
2023-02-09T19:55:02.740Z,0
2023-02-09T20:00:06.332Z,0
2023-02-09T20:05:02.947Z,0
2023-02-09T20:10:03.038Z,0
2023-02-09T20:15:02.556Z,0
2023-02-09T20:20:02.655Z,0
2023-02-09T20:25:02.441Z,0
2023-02-09T20:30:03.272Z,0
2023-02-09T20:35:02.984Z,0
2023-02-09T20:40:02.704Z,0
2023-02-09T20:45:02.811Z,0
2023-02-09T20:50:02.731Z,0
2023-02-09T20:55:03.003Z,0
2023-02-09T21:00:03.310Z,0
2023-02-09T21:05:03.000Z,0
2023-02-09T21:10:03.053Z,0
2023-02-09T21:15:03.329Z,0
2023-02-09T21:20:02.972Z,0
2023-02-09T21:25:02.482Z,0
2023-02-09T21:30:03.236Z,0
2023-02-09T21:35:02.961Z,0
2023-02-09T21:40:03.112Z,0
2023-02-09T21:45:02.884Z,0
2023-02-09T21:50:02.578Z,0
2023-02-09T21:55:02.762Z,0
2023-02-09T22:00:03.268Z,0
2023-02-09T22:05:02.998Z,0
2023-02-09T22:10:02.695Z,0
2023-02-09T22:15:02.626Z,0
2023-02-09T22:20:02.416Z,0
2023-02-09T22:25:03.236Z,0
2023-02-09T22:30:03.005Z,0
2023-02-09T22:35:02.806Z,0
2023-02-09T22:40:02.437Z,0
2023-02-09T22:45:08.349Z,0
2023-02-09T22:50:03.030Z,0
2023-02-09T22:55:03.569Z,0
2023-02-09T23:00:02.701Z,0
2023-02-09T23:05:03.407Z,0
2023-02-09T23:10:03.287Z,0
2023-02-09T23:15:03.139Z,0
2023-02-09T23:20:02.809Z,0
2023-02-09T23:25:02.565Z,0
2023-02-09T23:30:03.321Z,0
2023-02-09T23:35:02.564Z,0
2023-02-09T23:40:03.184Z,0
2023-02-09T23:45:03.035Z,0
2023-02-09T23:55:02.921Z,0
